createdAt,value
2018-10-01T00:02:35.399Z,13.60
2018-10-01T00:07:30.026Z,13.60
2018-10-01T00:12:24.684Z,13.60
2018-10-01T00:17:19.256Z,13.60
2018-10-01T00:22:19.085Z,13.50
2018-10-01T00:27:13.606Z,13.60
2018-10-01T00:32:08.260Z,13.60
2018-10-01T00:37:02.863Z,13.50
2018-10-01T00:41:57.408Z,13.40
2018-10-01T00:46:51.909Z,13.50
2018-10-01T00:51:46.436Z,13.60
2018-10-01T00:56:40.922Z,13.60
2018-10-01T01:01:35.500Z,13.50
2018-10-01T01:06:30.021Z,13.50
2018-10-01T01:11:24.856Z,13.40
2018-10-01T01:16:19.442Z,13.40
2018-10-01T01:21:14.406Z,13.30
2018-10-01T01:26:09.107Z,13.40
2018-10-01T01:31:03.931Z,13.40
2018-10-01T01:35:58.676Z,13.40
2018-10-01T01:40:53.220Z,13.40
2018-10-01T01:45:47.907Z,13.40
2018-10-01T01:50:42.499Z,13.20
2018-10-01T01:55:37.057Z,13.20
2018-10-01T02:00:31.879Z,13.30
2018-10-01T02:05:26.481Z,13.40
2018-10-01T02:10:21.236Z,13.30
2018-10-01T02:15:15.905Z,13.30
2018-10-01T02:20:10.539Z,13.30
2018-10-01T02:25:05.309Z,13.30
2018-10-01T02:30:00.237Z,13.30
2018-10-01T02:34:54.820Z,13.30
2018-10-01T02:39:49.372Z,13.10
2018-10-01T02:44:44.029Z,13.10
2018-10-01T02:49:39.192Z,13.00
2018-10-01T02:54:34.191Z,13.10
2018-10-01T02:59:28.962Z,13.10
2018-10-01T03:04:23.685Z,13.20
2018-10-01T03:09:18.188Z,13.10
2018-10-01T03:14:12.970Z,13.10
2018-10-01T03:19:07.940Z,13.20
2018-10-01T03:24:02.489Z,13.10
2018-10-01T03:28:57.224Z,13.00
2018-10-01T03:33:51.757Z,12.90
2018-10-01T03:38:46.235Z,12.80
2018-10-01T03:43:41.001Z,12.90
2018-10-01T03:48:36.014Z,12.90
2018-10-01T03:53:30.569Z,13.00
2018-10-01T03:58:25.232Z,12.90
2018-10-01T04:03:20.079Z,12.80
2018-10-01T04:08:14.917Z,12.80
2018-10-01T04:13:09.621Z,12.80
2018-10-01T04:18:04.397Z,12.80
2018-10-01T04:22:59.238Z,12.80
2018-10-01T04:27:59.592Z,12.70
2018-10-01T04:32:55.209Z,12.80
2018-10-01T04:37:50.046Z,12.80
2018-10-01T04:42:45.032Z,12.80
2018-10-01T04:47:39.869Z,12.80
2018-10-01T04:52:35.392Z,12.70
2018-10-01T04:57:30.855Z,12.70
2018-10-01T05:02:25.616Z,12.70
2018-10-01T05:07:20.708Z,12.70
2018-10-01T05:12:16.263Z,12.60
2018-10-01T05:17:16.171Z,12.60
2018-10-01T05:22:10.921Z,12.60
2018-10-01T05:27:06.077Z,12.60
2018-10-01T05:32:00.917Z,12.60
2018-10-01T05:36:55.616Z,12.60
2018-10-01T05:41:50.416Z,12.60
2018-10-01T05:46:44.959Z,12.50
2018-10-01T05:51:40.651Z,12.50
2018-10-01T05:56:35.753Z,12.40
2018-10-01T06:01:30.788Z,12.40
2018-10-01T06:06:29.620Z,12.40
2018-10-01T06:11:27.182Z,12.50
2018-10-01T06:16:53.778Z,12.40
2018-10-01T06:21:49.604Z,12.30
2018-10-01T06:26:44.252Z,12.30
2018-10-01T06:31:38.908Z,12.50
2018-10-01T06:36:33.437Z,12.50
2018-10-01T06:41:28.823Z,12.50
2018-10-01T06:46:23.392Z,12.60
2018-10-01T06:51:17.946Z,12.60
2018-10-01T06:56:13.108Z,12.80
2018-10-01T07:01:09.320Z,12.70
2018-10-01T07:06:04.257Z,12.50
2018-10-01T07:11:02.538Z,12.30
2018-10-01T07:16:02.192Z,12.10
2018-10-01T07:20:56.841Z,12.00
2018-10-01T07:25:58.480Z,11.90
2018-10-01T07:30:53.373Z,11.90
2018-10-01T07:35:50.907Z,11.80
2018-10-01T07:40:45.781Z,11.80
2018-10-01T07:45:47.170Z,11.70
2018-10-01T07:50:50.049Z,11.70
2018-10-01T07:55:44.986Z,11.70
2018-10-01T08:00:39.943Z,11.80
2018-10-01T08:05:34.468Z,11.90
2018-10-01T08:10:29.369Z,11.90
2018-10-01T08:15:25.186Z,12.00
2018-10-01T08:20:20.604Z,12.10
2018-10-01T08:25:15.824Z,12.10
2018-10-01T08:30:11.232Z,11.90
2018-10-01T08:35:06.185Z,11.90
2018-10-01T08:56:24.697Z,12.10
2018-10-01T09:01:19.327Z,12.10
2018-10-01T09:06:18.303Z,12.00
2018-10-01T09:11:13.190Z,12.10
2018-10-01T09:16:07.725Z,12.20
2018-10-01T09:26:27.947Z,12.40
2018-10-01T09:31:22.490Z,12.70
2018-10-01T09:36:17.103Z,12.80
2018-10-01T09:41:12.194Z,13.00
2018-10-01T10:02:23.875Z,13.60
2018-10-01T10:07:22.348Z,13.40
2018-10-01T10:12:23.696Z,13.20
2018-10-01T10:17:19.431Z,13.40
2018-10-01T10:27:43.934Z,13.50
2018-10-01T10:32:39.405Z,13.70
2018-10-01T10:37:35.049Z,14.00
2018-10-01T10:42:29.841Z,14.20
2018-10-01T11:03:39.188Z,13.80
2018-10-01T11:08:34.690Z,13.80
2018-10-01T11:13:31.092Z,14.00
2018-10-01T11:18:27.050Z,14.00
2018-10-01T11:23:22.406Z,14.10
2018-10-01T11:44:31.581Z,13.70
2018-10-01T11:49:26.666Z,13.80
2018-10-01T11:54:27.448Z,13.80
2018-10-01T11:59:22.969Z,14.00
2018-10-01T12:04:18.439Z,14.10
2018-10-01T12:25:28.444Z,14.00
2018-10-01T12:30:27.776Z,14.00
2018-10-01T12:35:22.749Z,13.90
2018-10-01T12:40:17.658Z,13.90
2018-10-01T13:01:26.481Z,13.60
2018-10-01T13:06:21.636Z,13.10
2018-10-01T13:11:16.599Z,12.70
2018-10-01T13:16:11.655Z,12.60
2018-10-01T13:21:07.854Z,10.60
2018-10-01T13:26:06.313Z,9.90
2018-10-01T13:31:02.753Z,10.00
2018-10-01T13:36:00.443Z,10.10
2018-10-01T13:40:55.352Z,10.10
2018-10-01T14:02:05.108Z,10.50
2018-10-01T14:06:59.822Z,10.50
2018-10-01T14:11:54.790Z,10.50
2018-10-01T14:16:49.672Z,10.60
2018-10-01T14:21:46.481Z,10.60
2018-10-01T14:26:43.706Z,10.50
2018-10-01T14:31:40.185Z,10.30
2018-10-01T14:36:51.662Z,10.10
2018-10-01T14:41:52.220Z,10.10
2018-10-01T15:03:02.474Z,10.40
2018-10-01T15:07:57.413Z,10.60
2018-10-01T15:12:53.400Z,10.60
2018-10-01T15:17:48.961Z,10.70
2018-10-01T15:22:44.281Z,10.80
2018-10-01T15:27:38.976Z,10.80
2018-10-01T15:32:33.936Z,10.90
2018-10-01T15:37:29.684Z,10.90
2018-10-01T15:42:24.765Z,10.80
2018-10-01T16:03:33.377Z,11.20
2018-10-01T16:08:27.973Z,11.20
2018-10-01T16:13:22.557Z,11.20
2018-10-01T16:18:17.232Z,11.20
2018-10-01T16:23:11.740Z,11.20
2018-10-01T16:28:06.369Z,11.20
2018-10-01T16:33:00.872Z,11.20
2018-10-01T16:37:55.392Z,11.30
2018-10-01T16:42:50.049Z,11.20
2018-10-01T17:03:59.441Z,11.00
2018-10-01T17:08:54.176Z,11.00
2018-10-01T17:13:48.997Z,10.90
2018-10-01T17:18:43.785Z,10.90
2018-10-01T17:23:38.574Z,10.90
2018-10-01T17:28:33.149Z,11.00
2018-10-01T17:33:27.941Z,11.10
2018-10-01T17:38:23.715Z,11.10
2018-10-01T17:43:18.366Z,10.00
2018-10-01T18:04:27.469Z,9.30
2018-10-01T18:09:22.128Z,9.30
2018-10-01T18:14:16.830Z,9.20
2018-10-01T18:19:12.098Z,9.20
2018-10-01T18:24:07.001Z,9.30
2018-10-01T18:29:01.835Z,9.30
2018-10-01T18:33:56.505Z,9.40
2018-10-01T18:43:55.253Z,9.50
2018-10-01T19:05:04.307Z,9.50
2018-10-01T19:09:58.896Z,9.50
2018-10-01T19:14:53.701Z,9.50
2018-10-01T19:19:48.204Z,9.40
2018-10-01T19:24:42.927Z,9.40
2018-10-01T19:29:37.541Z,9.40
2018-10-01T19:34:32.166Z,9.40
2018-10-01T19:39:27.451Z,9.50
2018-10-01T19:44:22.332Z,9.50
2018-10-01T20:05:32.629Z,9.60
2018-10-01T20:10:27.250Z,9.60
2018-10-01T20:15:21.995Z,9.70
2018-10-01T20:20:16.609Z,9.70
2018-10-01T20:25:11.134Z,9.70
2018-10-01T20:30:05.849Z,9.80
2018-10-01T20:35:00.523Z,9.80
2018-10-01T20:39:54.976Z,9.70
2018-10-01T20:44:49.496Z,9.60
2018-10-01T21:05:58.265Z,9.90
2018-10-01T21:10:52.810Z,10.00
2018-10-01T21:15:47.362Z,10.00
2018-10-01T21:20:41.934Z,10.00
2018-10-01T21:25:36.477Z,10.00
2018-10-01T21:46:45.645Z,9.80
2018-10-01T21:51:40.349Z,9.70
2018-10-01T21:56:35.117Z,9.70
2018-10-01T22:01:35.032Z,9.60
2018-10-01T22:06:29.752Z,9.60
2018-10-01T22:27:38.602Z,9.60
2018-10-01T22:32:33.365Z,9.60
2018-10-01T22:37:28.010Z,9.60
2018-10-01T22:42:22.741Z,9.60
2018-10-01T22:47:17.772Z,9.60
2018-10-01T23:08:27.088Z,9.40
2018-10-01T23:13:21.701Z,9.50
2018-10-01T23:18:16.356Z,9.50
2018-10-01T23:23:10.922Z,9.50
2018-10-01T23:28:05.587Z,9.40
2018-10-01T23:49:15.103Z,8.80
2018-10-01T23:54:09.648Z,8.80
2018-10-01T23:59:04.217Z,8.70
